TAF KCOD
KCOD 072327Z 0800/0824 26018G30KT P6SM SKC FM080100 26015G25KT P6SM SKC FM081700 25020G35KT P6SM SKC=
METAR KCOD
WC KCOD
WS KCOD
WV KCOD